Time;durP1;ratioP1;P1;durP2;ratioP2;P2;SDS_P1;SDS_P2;PMS_P1;PMS_P2;Temp;Humidity;BMP_temperature;BMP_pressure;BME280_temperature;BME280_humidity;BME280_pressure;Samples;Min_cycle;Max_cycle;Signal;HPM_P1;HPM_P2
2022/06/22 00:02:08;;;;;;;;;;;;;;;16.33;43.29;100298.84;1743530;81;25815;-55
2022/06/22 00:04:43;;;;;;;;;;;;;;;16.25;43.63;100295.20;1745406;80;25814;-55
2022/06/22 00:07:17;;;;;;;;;;;;;;;16.14;43.55;100294.28;1744637;81;26046;-52
2022/06/22 00:09:44;;;;;;;;;;;;;;;16.07;43.65;100293.34;1744543;82;25886;-54
2022/06/22 00:12:24;;;;;;;;;;;;;;;15.99;43.58;100294.25;1744502;81;27432;-55
2022/06/22 00:14:53;;;;;;;;;;;;;;;15.95;44.12;100293.77;1734342;81;25479;-55
2022/06/22 00:17:23;;;;;;;;;;;;;;;15.91;45.22;100291.08;1743370;81;26392;-54
2022/06/22 00:19:49;;;;;;;;;;;;;;;15.87;44.97;100291.66;1745244;81;26552;-54
2022/06/22 00:22:27;;;;;;;;;;;;;;;15.75;45.48;100289.34;1743437;81;25832;-54
2022/06/22 00:25:13;;;;;;;;;;;;;;;15.63;45.69;100284.87;1740121;80;27578;-54
2022/06/22 00:27:40;;;;;;;;;;;;;;;15.55;45.23;100275.94;1709501;81;25852;-56
2022/06/22 00:30:13;;;;;;;;;;;;;;;15.52;45.45;100284.42;1724860;82;25669;-55
2022/06/22 00:32:42;;;;;;;;;;;;;;;15.45;45.37;100279.73;1730930;81;25888;-54
2022/06/22 00:35:41;;;;;;;;;;;;;;;15.45;44.81;100287.86;1721200;82;25805;-55
2022/06/22 00:38:16;;;;;;;;;;;;;;;15.46;44.74;100284.66;1704250;81;28542;-55
2022/06/22 00:40:43;;;;;;;;;;;;;;;15.51;45.10;100280.05;1749679;80;25781;-54
2022/06/22 00:43:15;;;;;;;;;;;;;;;15.52;44.70;100275.80;1754397;80;25674;-55
2022/06/22 00:45:42;;;;;;;;;;;;;;;15.51;44.43;100270.56;1732797;80;25847;-54
2022/06/22 00:48:24;;;;;;;;;;;;;;;15.55;44.32;100273.23;1727444;81;25703;-54
2022/06/22 00:51:01;;;;;;;;;;;;;;;15.58;44.37;100275.59;1734752;81;27499;-55
2022/06/22 00:53:36;;;;;;;;;;;;;;;15.60;43.90;100276.23;1731820;82;26529;-54
2022/06/22 00:56:10;;;;;;;;;;;;;;;15.57;44.00;100281.50;1732001;80;25775;-54
2022/06/22 00:58:55;;;;;;;;;;;;;;;15.55;43.95;100278.65;1717115;81;25816;-55
2022/06/22 01:01:38;;;;;;;;;;;;;;;15.49;44.31;100285.63;1720147;82;26605;-51
2022/06/22 01:04:14;;;;;;;;;;;;;;;15.45;44.32;100282.97;1718627;82;27694;-53
2022/06/22 01:06:50;;;;;;;;;;;;;;;15.44;45.07;100283.46;1723432;81;25442;-54
2022/06/22 01:09:29;;;;;;;;;;;;;;;15.33;45.05;100275.25;1725160;80;25487;-54
2022/06/22 01:12:17;;;;;;;;;;;;;;;15.27;45.29;100280.04;1725514;80;26709;-57
2022/06/22 01:14:47;;;;;;;;;;;;;;;15.22;46.20;100285.13;1719024;81;25710;-54
2022/06/22 01:17:30;;;;;;;;;;;;;;;15.15;46.78;100282.81;1733214;81;28173;-54
2022/06/22 01:20:05;;;;;;;;;;;;;;;15.13;46.20;100278.08;1717731;82;27326;-54
2022/06/22 01:22:41;;;;;;;;;;;;;;;15.12;46.91;100285.38;1726956;81;25701;-54
2022/06/22 01:25:47;;;;;;;;;;;;;;;15.05;47.54;100289.82;1726873;80;25788;-54
2022/06/22 01:28:14;;;;;;;;;;;;;;;14.93;48.26;100289.88;1722414;81;27322;-54
2022/06/22 01:30:43;;;;;;;;;;;;;;;14.84;48.24;100292.62;1746747;81;27538;-55
2022/06/22 01:33:16;;;;;;;;;;;;;;;14.79;48.53;100284.69;1740830;80;25832;-55
2022/06/22 01:35:43;;;;;;;;;;;;;;;14.73;48.46;100288.94;1745678;81;25864;-53
2022/06/22 01:38:16;;;;;;;;;;;;;;;14.70;48.55;100296.91;1747420;80;25818;-54
2022/06/22 01:40:49;;;;;;;;;;;;;;;14.70;48.40;100295.55;1709181;80;25423;-54
2022/06/22 01:43:19;;;;;;;;;;;;;;;14.69;48.80;100297.92;1689572;82;27539;-54
2022/06/22 01:45:56;;;;;;;;;;;;;;;14.63;48.56;100293.67;1702263;81;25999;-55
2022/06/22 01:48:38;;;;;;;;;;;;;;;14.62;48.41;100300.96;1765929;80;25634;-55
2022/06/22 01:51:12;;;;;;;;;;;;;;;14.59;48.25;100298.59;1762880;80;25849;-54
2022/06/22 01:53:45;;;;;;;;;;;;;;;14.62;48.09;100296.91;1737678;80;25866;-54
2022/06/22 01:56:37;;;;;;;;;;;;;;;14.64;48.11;100296.72;1744038;80;27545;-55
2022/06/22 01:59:23;;;;;;;;;;;;;;;14.62;48.17;100294.69;1759234;80;25814;-54
2022/06/22 02:01:53;;;;;;;;;;;;;;;14.59;48.08;100287.77;1757512;80;26178;-54
2022/06/22 02:04:38;;;;;;;;;;;;;;;14.56;47.92;100285.43;1772745;80;25785;-54
2022/06/22 02:10:31;;;;;;;;;;;;;;;14.53;47.86;100273.59;1763894;80;27405;-55
2022/06/22 02:13:04;;;;;;;;;;;;;;;14.41;48.07;100281.23;1754542;80;25687;-54
2022/06/22 02:15:43;;;;;;;;;;;;;;;14.34;47.72;100274.31;1771670;80;25790;-54
2022/06/22 02:18:34;;;;;;;;;;;;;;;14.37;48.00;100271.77;1766609;80;25853;-55
2022/06/22 02:21:04;;;;;;;;;;;;;;;14.32;47.72;100269.58;1764339;80;26197;-55
2022/06/22 02:23:34;;;;;;;;;;;;;;;14.28;47.50;100259.28;1761509;80;29596;-54
2022/06/22 02:26:14;;;;;;;;;;;;;;;14.31;47.22;100257.59;1764957;80;25822;-55
2022/06/22 02:28:42;;;;;;;;;;;;;;;14.37;46.97;100253.69;1743325;80;26059;-53
2022/06/22 02:31:09;;;;;;;;;;;;;;;14.44;46.87;100255.16;1728625;82;26652;-55
2022/06/22 02:33:38;;;;;;;;;;;;;;;14.48;46.82;100248.40;1726222;82;25733;-55
2022/06/22 02:36:07;;;;;;;;;;;;;;;14.52;46.56;100245.66;1722742;82;27508;-55
2022/06/22 02:38:33;;;;;;;;;;;;;;;14.58;46.21;100245.47;1718691;82;25844;-55
2022/06/22 02:46:35;;;;;;;;;;;;;;;14.75;45.64;100224.63;1759143;80;25755;-54
2022/06/22 02:49:08;;;;;;;;;;;;;;;14.85;45.36;100219.84;1763159;80;27488;-54
2022/06/22 02:51:40;;;;;;;;;;;;;;;14.94;45.32;100213.02;1772094;80;25839;-54
2022/06/22 02:54:10;;;;;;;;;;;;;;;14.99;44.94;100212.82;1761030;80;25921;-54
2022/06/22 02:56:39;;;;;;;;;;;;;;;15.04;45.13;100217.70;1761478;80;25970;-55
2022/06/22 02:59:08;;;;;;;;;;;;;;;14.99;45.27;100216.88;1766628;80;25703;-55
2022/06/22 03:01:36;;;;;;;;;;;;;;;14.99;45.29;100219.59;1769326;80;28887;-54
2022/06/22 03:04:14;;;;;;;;;;;;;;;14.94;45.27;100215.20;1754951;80;25653;-55
2022/06/22 03:06:44;;;;;;;;;;;;;;;14.95;45.41;100215.54;1769284;80;25706;-56
2022/06/22 03:09:10;;;;;;;;;;;;;;;14.96;45.32;100213.17;1728954;80;25927;-53
2022/06/22 03:11:39;;;;;;;;;;;;;;;14.95;45.59;100224.19;1749637;80;25746;-54
2022/06/22 03:14:28;;;;;;;;;;;;;;;14.91;45.51;100225.06;1761187;81;27454;-52
2022/06/22 03:17:07;;;;;;;;;;;;;;;14.91;45.54;100230.97;1766362;80;26070;-54
2022/06/22 03:19:55;;;;;;;;;;;;;;;14.83;45.58;100234.06;1756848;80;25719;-55
2022/06/22 03:22:26;;;;;;;;;;;;;;;14.81;45.47;100240.69;1747713;80;25966;-53
2022/06/22 03:25:12;;;;;;;;;;;;;;;14.82;45.65;100239.66;1762165;80;25488;-55
2022/06/22 03:27:42;;;;;;;;;;;;;;;14.83;45.69;100229.17;1764806;80;27459;-54
2022/06/22 03:30:20;;;;;;;;;;;;;;;14.89;45.82;100237.92;1693147;83;25786;-55
2022/06/22 03:32:54;;;;;;;;;;;;;;;14.92;45.67;100234.88;1687550;84;25829;-53
2022/06/22 03:35:36;;;;;;;;;;;;;;;14.96;45.61;100229.94;1696340;82;25982;-55
2022/06/22 03:38:12;;;;;;;;;;;;;;;15.00;45.45;100221.77;1700397;83;25742;-54
2022/06/22 03:40:42;;;;;;;;;;;;;;;15.05;45.50;100225.30;1686784;82;27589;-55
2022/06/22 03:43:21;;;;;;;;;;;;;;;15.07;45.62;100224.62;1697678;82;25825;-55
2022/06/22 03:45:54;;;;;;;;;;;;;;;15.07;45.62;100219.20;1706910;82;25901;-54
2022/06/22 03:48:29;;;;;;;;;;;;;;;15.09;45.64;100210.39;1718911;81;26350;-55
2022/06/22 03:51:06;;;;;;;;;;;;;;;15.10;45.24;100213.44;1732306;82;25983;-55
2022/06/22 03:54:01;;;;;;;;;;;;;;;15.15;45.25;100214.55;1722727;81;27540;-55
2022/06/22 03:56:30;;;;;;;;;;;;;;;15.20;45.25;100214.55;1684334;84;25824;-54
2022/06/22 03:58:58;;;;;;;;;;;;;;;15.25;45.03;100214.34;1694336;83;25868;-55
2022/06/22 04:01:24;;;;;;;;;;;;;;;15.26;45.14;100199.77;1712898;80;25773;-55
2022/06/22 04:03:54;;;;;;;;;;;;;;;15.36;45.47;100198.16;1728096;81;25473;-54
2022/06/22 04:06:31;;;;;;;;;;;;;;;15.41;45.12;100198.97;1723319;81;28115;-55
2022/06/22 04:08:59;;;;;;;;;;;;;;;15.46;45.21;100201.98;1718796;81;25685;-55
2022/06/22 04:11:32;;;;;;;;;;;;;;;15.47;45.16;100205.86;1716499;82;25836;-55
2022/06/22 04:14:09;;;;;;;;;;;;;;;15.55;45.14;100204.96;1724813;81;25779;-54
2022/06/22 04:16:41;;;;;;;;;;;;;;;15.62;45.06;100201.84;1728139;81;25867;-55
2022/06/22 04:19:17;;;;;;;;;;;;;;;15.68;44.90;100193.98;1731923;81;27466;-55
2022/06/22 04:21:51;;;;;;;;;;;;;;;15.74;44.50;100197.30;1730145;81;25460;-53
2022/06/22 04:24:22;;;;;;;;;;;;;;;15.78;44.50;100200.82;1717300;81;25480;-55
2022/06/22 04:26:55;;;;;;;;;;;;;;;15.78;44.36;100195.92;1723332;81;26011;-55
2022/06/22 04:29:45;;;;;;;;;;;;;;;15.77;44.64;100191.52;1739330;80;25755;-54
2022/06/22 04:32:30;;;;;;;;;;;;;;;15.79;44.52;100194.90;1737952;80;28289;-56
2022/06/22 04:35:06;;;;;;;;;;;;;;;15.84;44.37;100189.78;1746330;81;26118;-56
2022/06/22 04:37:42;;;;;;;;;;;;;;;15.91;43.84;100184.47;1739800;82;25691;-55
2022/06/22 04:40:27;;;;;;;;;;;;;;;15.99;44.16;100180.84;1717648;81;25813;-56
2022/06/22 04:42:56;;;;;;;;;;;;;;;16.07;44.04;100188.88;1693063;83;25958;-56
2022/06/22 04:45:28;;;;;;;;;;;;;;;16.13;43.50;100184.05;1697432;82;29681;-56
2022/06/22 04:47:57;;;;;;;;;;;;;;;16.22;43.16;100184.29;1740508;80;25765;-57
2022/06/22 04:50:25;;;;;;;;;;;;;;;16.32;42.88;100192.13;1764667;80;25763;-55
2022/06/22 04:52:55;;;;;;;;;;;;;;;16.45;41.83;100195.53;1757078;80;25813;-54
2022/06/22 04:55:24;;;;;;;;;;;;;;;16.56;42.18;100201.84;1771989;80;25770;-56
2022/06/22 04:57:52;;;;;;;;;;;;;;;16.66;41.99;100198.85;1764552;80;27597;-56
2022/06/22 05:00:22;;;;;;;;;;;;;;;16.75;41.45;100196.84;1758348;80;25799;-56
2022/06/22 05:02:52;;;;;;;;;;;;;;;16.87;41.05;100199.41;1758083;80;25746;-56
2022/06/22 05:05:24;;;;;;;;;;;;;;;16.99;40.69;100196.20;1772369;80;25908;-56
2022/06/22 05:08:11;;;;;;;;;;;;;;;17.10;38.85;100190.26;1744342;80;25791;-56
2022/06/22 05:10:53;;;;;;;;;;;;;;;17.32;37.68;100210.66;1739843;80;27488;-56
2022/06/22 05:13:29;;;;;;;;;;;;;;;17.49;37.05;100174.50;1741534;81;26309;-56
2022/06/22 05:15:58;;;;;;;;;;;;;;;17.62;37.50;100190.09;1745942;81;25854;-56
2022/06/22 05:18:28;;;;;;;;;;;;;;;17.71;36.41;100192.16;1739860;81;25831;-53
2022/06/22 05:21:07;;;;;;;;;;;;;;;17.77;36.45;100212.62;1742195;81;25792;-56
2022/06/22 05:23:35;;;;;;;;;;;;;;;17.84;36.65;100199.91;1746704;80;27532;-55
2022/06/22 05:26:07;;;;;;;;;;;;;;;17.90;36.69;100211.02;1726804;82;25781;-55
2022/06/22 05:28:39;;;;;;;;;;;;;;;17.90;36.19;100207.80;1715455;82;25781;-55
2022/06/22 05:31:15;;;;;;;;;;;;;;;17.97;36.51;100217.41;1730090;81;25831;-55
2022/06/22 05:33:46;;;;;;;;;;;;;;;18.01;36.88;100199.63;1721671;82;25770;-54
2022/06/22 05:36:16;;;;;;;;;;;;;;;18.07;36.76;100207.52;1725807;82;27664;-56
2022/06/22 05:38:45;;;;;;;;;;;;;;;18.12;36.80;100209.96;1728404;82;25810;-56
2022/06/22 05:41:13;;;;;;;;;;;;;;;18.19;36.79;100201.84;1725638;81;25655;-56
2022/06/22 05:43:41;;;;;;;;;;;;;;;18.24;36.42;100208.88;1730807;81;25896;-55
2022/06/22 05:46:09;;;;;;;;;;;;;;;18.31;36.19;100204.84;1709970;81;25725;-56
2022/06/22 05:48:41;;;;;;;;;;;;;;;18.42;36.05;100218.39;1696460;82;28626;-56
2022/06/22 05:51:17;;;;;;;;;;;;;;;18.52;35.79;100222.09;1701375;82;25527;-55
2022/06/22 05:53:53;;;;;;;;;;;;;;;18.56;35.38;100213.85;1699046;82;25725;-55
2022/06/22 05:56:23;;;;;;;;;;;;;;;18.63;36.01;100207.91;1692025;82;26395;-57
2022/06/22 05:59:11;;;;;;;;;;;;;;;18.76;35.47;100202.52;1686997;82;25768;-55
2022/06/22 06:01:56;;;;;;;;;;;;;;;18.91;35.50;100211.05;1698838;82;28409;-54
2022/06/22 06:04:54;;;;;;;;;;;;;;;19.03;35.16;100214.05;1696538;83;25859;-55
2022/06/22 06:07:30;;;;;;;;;;;;;;;19.07;34.41;100193.52;1692434;80;25691;-54
2022/06/22 06:09:57;;;;;;;;;;;;;;;19.07;34.78;100201.70;1705245;81;25816;-55
2022/06/22 06:12:35;;;;;;;;;;;;;;;19.15;35.07;100201.50;1696716;82;25983;-55
2022/06/22 06:15:04;;;;;;;;;;;;;;;19.21;35.07;100210.74;1691396;82;27742;-55
2022/06/22 06:17:37;;;;;;;;;;;;;;;19.34;35.39;100219.47;1717012;81;25810;-55
2022/06/22 06:20:07;;;;;;;;;;;;;;;19.49;35.49;100213.28;1705142;83;25670;-54
2022/06/22 06:22:36;;;;;;;;;;;;;;;19.64;34.68;100206.27;1708665;83;26066;-55
2022/06/22 06:28:02;;;;;;;;;;;;;;;19.83;33.82;100211.92;1707438;82;27487;-56
2022/06/22 06:30:35;;;;;;;;;;;;;;;19.75;33.20;100218.42;1684088;84;25788;-55
2022/06/22 06:33:14;;;;;;;;;;;;;;;19.75;33.53;100207.52;1692115;84;25869;-55
2022/06/22 06:35:56;;;;;;;;;;;;;;;19.76;33.40;100219.28;1678333;84;25916;-56
2022/06/22 06:38:29;;;;;;;;;;;;;;;19.76;33.66;100219.28;1682553;84;25817;-54
2022/06/22 06:41:17;;;;;;;;;;;;;;;19.80;33.55;100219.16;1687601;84;27525;-55
2022/06/22 06:44:11;;;;;;;;;;;;;;;19.78;33.77;100210.34;1677047;84;25745;-55
2022/06/22 06:46:40;;;;;;;;;;;;;;;19.75;33.90;100221.16;1747973;80;25809;-54
2022/06/22 06:49:18;;;;;;;;;;;;;;;19.74;34.02;100215.92;1770148;80;25969;-54
2022/06/22 06:52:03;;;;;;;;;;;;;;;19.66;34.06;100224.63;1751570;80;25702;-54
2022/06/22 06:54:36;;;;;;;;;;;;;;;19.60;34.28;100226.81;1714263;81;27590;-55
2022/06/22 06:57:09;;;;;;;;;;;;;;;19.68;34.31;100212.96;1733707;80;25767;-55
2022/06/22 06:59:37;;;;;;;;;;;;;;;19.64;34.09;100222.63;1737425;81;25800;-56
2022/06/22 07:02:12;;;;;;;;;;;;;;;19.72;34.59;100233.87;1718418;81;26390;-54
2022/06/22 07:04:39;;;;;;;;;;;;;;;19.79;34.41;100233.34;1709876;82;25843;-55
2022/06/22 07:07:18;;;;;;;;;;;;;;;19.90;34.51;100227.80;1733083;82;27526;-56
2022/06/22 07:09:46;;;;;;;;;;;;;;;19.98;34.34;100231.67;1699565;82;25786;-55
2022/06/22 07:12:29;;;;;;;;;;;;;;;20.07;34.47;100230.94;1715764;82;25804;-56
2022/06/22 07:14:58;;;;;;;;;;;;;;;20.12;34.19;100222.94;1730139;82;26720;-56
2022/06/22 07:17:25;;;;;;;;;;;;;;;20.21;34.34;100229.03;1734002;81;25411;-56
2022/06/22 07:20:07;;;;;;;;;;;;;;;20.17;34.45;100253.70;1710207;82;27506;-56
2022/06/22 07:22:37;;;;;;;;;;;;;;;20.08;34.64;100223.03;1718311;82;25817;-56
2022/06/22 07:25:19;;;;;;;;;;;;;;;20.07;35.00;100240.50;1721220;82;25699;-55
2022/06/22 07:28:01;;;;;;;;;;;;;;;20.06;34.92;100239.32;1732875;80;25895;-58
2022/06/22 07:30:37;;;;;;;;;;;;;;;20.04;35.14;100227.80;1720679;81;25875;-55
2022/06/22 07:33:25;;;;;;;;;;;;;;;20.12;35.21;100227.03;1708257;83;27476;-56
2022/06/22 07:36:00;;;;;;;;;;;;;;;20.20;35.13;100223.25;1712348;82;25856;-55
2022/06/22 07:39:02;;;;;;;;;;;;;;;20.36;35.08;100204.17;1713952;81;25693;-56
2022/06/22 07:41:30;;;;;;;;;;;;;;;20.40;34.74;100217.72;1669497;85;25876;-55
2022/06/22 07:44:10;;;;;;;;;;;;;;;20.44;34.52;100233.98;1743774;80;25689;-56
2022/06/22 07:46:49;;;;;;;;;;;;;;;20.42;34.67;100222.45;1710940;82;27684;-55
2022/06/22 07:49:31;;;;;;;;;;;;;;;20.50;34.62;100219.99;1690070;83;25691;-55
2022/06/22 07:52:01;;;;;;;;;;;;;;;20.47;34.47;100228.64;1698813;83;25796;-55
2022/06/22 07:54:32;;;;;;;;;;;;;;;20.56;34.67;100230.59;1694921;81;26739;-55
2022/06/22 07:57:23;;;;;;;;;;;;;;;20.67;34.54;100204.48;1695532;82;25875;-55
2022/06/22 07:59:53;;;;;;;;;;;;;;;20.76;34.49;100198.59;1691499;82;27509;-55
2022/06/22 08:02:23;;;;;;;;;;;;;;;21.03;34.71;100194.86;1693382;81;26083;-55
2022/06/22 08:05:02;;;;;;;;;;;;;;;21.20;34.23;100206.95;1673593;83;25974;-55
2022/06/22 08:07:39;;;;;;;;;;;;;;;21.26;33.81;100198.39;1699859;81;25837;-55
2022/06/22 08:10:12;;;;;;;;;;;;;;;21.15;34.02;100203.23;1693738;83;25655;-55
2022/06/22 08:13:02;;;;;;;;;;;;;;;21.08;34.31;100207.36;1687138;82;29663;-55
2022/06/22 08:15:32;;;;;;;;;;;;;;;21.00;34.39;100217.19;1691871;83;25727;-55
2022/06/22 08:18:00;;;;;;;;;;;;;;;20.76;34.78;100210.89;1698659;83;25493;-55
2022/06/22 08:20:30;;;;;;;;;;;;;;;20.82;34.75;100184.59;1684814;83;25938;-55
2022/06/22 08:22:59;;;;;;;;;;;;;;;20.94;35.25;100188.28;1692096;81;25725;-55
2022/06/22 08:25:26;;;;;;;;;;;;;;;21.23;35.07;100185.18;1695802;83;27465;-54
2022/06/22 08:27:52;;;;;;;;;;;;;;;21.33;34.66;100194.25;1694271;83;25809;-55
2022/06/22 08:30:22;;;;;;;;;;;;;;;21.20;34.48;100205.58;1686479;84;25807;-55
2022/06/22 08:32:52;;;;;;;;;;;;;;;21.19;34.81;100185.30;1698455;83;25801;-55
2022/06/22 08:35:25;;;;;;;;;;;;;;;21.16;34.72;100211.20;1707135;83;25914;-55
2022/06/22 08:38:04;;;;;;;;;;;;;;;21.23;34.99;100194.75;1693169;83;29739;-55
2022/06/22 08:40:43;;;;;;;;;;;;;;;21.46;34.63;100176.37;1722856;81;25873;-56
2022/06/22 08:43:25;;;;;;;;;;;;;;;21.70;34.30;100188.39;1745603;81;25490;-56
2022/06/22 08:46:18;;;;;;;;;;;;;;;22.01;34.14;100196.22;1731773;81;25847;-56
2022/06/22 08:49:15;;;;;;;;;;;;;;;22.31;34.01;100194.13;1732279;81;25483;-56
2022/06/22 08:52:05;;;;;;;;;;;;;;;22.60;33.19;100190.30;1720477;81;27458;-56
2022/06/22 08:54:45;;;;;;;;;;;;;;;22.91;32.95;100190.32;1719019;82;25766;-55
2022/06/22 08:57:18;;;;;;;;;;;;;;;22.86;32.69;100192.39;1719033;82;25818;-55
2022/06/22 09:00:04;;;;;;;;;;;;;;;22.58;32.66;100193.83;1725756;80;25993;-56
2022/06/22 09:03:06;;;;;;;;;;;;;;;22.54;33.30;100191.78;1732564;81;25780;-56
2022/06/22 09:05:42;;;;;;;;;;;;;;;22.38;33.37;100211.83;1727039;81;27660;-56
2022/06/22 09:08:12;;;;;;;;;;;;;;;21.99;33.70;100211.21;1726522;81;25805;-55
2022/06/22 09:10:42;;;;;;;;;;;;;;;21.95;34.03;100211.34;1726253;81;25707;-55
2022/06/22 09:13:24;;;;;;;;;;;;;;;22.03;33.82;100194.61;1715569;81;26059;-55
2022/06/22 09:16:27;;;;;;;;;;;;;;;22.18;33.54;100191.00;1668389;84;26085;-55
2022/06/22 09:19:20;;;;;;;;;;;;;;;22.03;33.09;100222.86;1736229;81;27469;-55
2022/06/22 09:22:08;;;;;;;;;;;;;;;22.08;33.80;100190.69;1715284;82;25773;-55
2022/06/22 09:24:41;;;;;;;;;;;;;;;22.09;33.79;100203.83;1720936;83;25868;-55
2022/06/22 09:27:14;;;;;;;;;;;;;;;22.09;33.54;100202.46;1723748;83;25846;-55
2022/06/22 09:30:03;;;;;;;;;;;;;;;22.09;33.93;100196.98;1712170;82;25863;-56
2022/06/22 09:32:42;;;;;;;;;;;;;;;22.22;33.77;100196.00;1654507;85;27645;-55
2022/06/22 09:35:27;;;;;;;;;;;;;;;22.15;33.82;100198.29;1661975;84;25874;-55
2022/06/22 09:38:03;;;;;;;;;;;;;;;22.05;34.03;100192.49;1681385;84;25868;-55
2022/06/22 09:41:02;;;;;;;;;;;;;;;22.11;34.08;100193.49;1728129;80;26140;-55
2022/06/22 09:43:44;;;;;;;;;;;;;;;22.02;33.79;100205.27;1745219;81;25719;-55
2022/06/22 09:46:17;;;;;;;;;;;;;;;21.79;34.15;100210.00;1728283;81;27435;-56
2022/06/22 09:49:10;;;;;;;;;;;;;;;21.72;34.16;100227.34;1732365;82;25724;-56
2022/06/22 09:52:06;;;;;;;;;;;;;;;21.85;34.37;100207.76;1722900;81;25876;-55
2022/06/22 09:58:01;;;;;;;;;;;;;;;22.62;33.68;100203.25;1690663;83;25827;-53
2022/06/22 10:00:50;;;;;;;;;;;;;;;23.31;32.88;100195.81;1686691;83;27546;-55
2022/06/22 10:03:28;;;;;;;;;;;;;;;23.95;32.16;100200.66;1706485;81;26190;-56
2022/06/22 10:06:17;;;;;;;;;;;;;;;24.50;30.33;100226.91;1704481;82;25798;-57
2022/06/22 10:09:13;;;;;;;;;;;;;;;24.74;30.72;100192.48;1694178;81;26012;-55
2022/06/22 10:11:59;;;;;;;;;;;;;;;24.62;30.21;100198.83;1708757;82;25705;-55
2022/06/22 10:14:50;;;;;;;;;;;;;;;24.33;30.22;100208.42;1714669;81;27501;-55
2022/06/22 10:17:26;;;;;;;;;;;;;;;24.31;30.88;100186.35;1722767;82;25684;-57
2022/06/22 10:20:14;;;;;;;;;;;;;;;24.58;30.66;100190.78;1726656;82;25826;-57
2022/06/22 10:23:01;;;;;;;;;;;;;;;24.48;30.36;100198.81;1729935;82;26756;-56
2022/06/22 10:25:35;;;;;;;;;;;;;;;24.97;30.53;100195.69;1725827;82;25767;-56
2022/06/22 10:28:16;;;;;;;;;;;;;;;25.24;29.94;100198.64;1733513;82;27514;-56
2022/06/22 10:30:49;;;;;;;;;;;;;;;24.99;29.04;100199.86;1724812;82;25742;-56
2022/06/22 10:33:34;;;;;;;;;;;;;;;24.69;29.42;100200.95;1735659;81;25758;-56
2022/06/22 10:36:37;;;;;;;;;;;;;;;24.37;30.09;100199.97;1715198;81;25824;-56
2022/06/22 10:39:36;;;;;;;;;;;;;;;24.23;30.27;100202.14;1722189;80;25809;-56
2022/06/22 10:45:28;;;;;;;;;;;;;;;24.66;30.24;100193.15;1731614;81;25935;-55
2022/06/22 10:48:08;;;;;;;;;;;;;;;24.60;29.63;100218.88;1706654;83;25981;-55
2022/06/22 10:50:44;;;;;;;;;;;;;;;24.23;29.90;100206.81;1697227;83;25800;-55
2022/06/22 10:53:23;;;;;;;;;;;;;;;24.02;30.62;100201.41;1669358;84;25973;-56
2022/06/22 10:55:54;;;;;;;;;;;;;;;23.88;31.20;100213.14;1729238;81;27569;-57
2022/06/22 10:58:45;;;;;;;;;;;;;;;23.64;31.48;100207.61;1739147;81;26076;-57
2022/06/22 11:01:36;;;;;;;;;;;;;;;23.49;31.82;100212.17;1743577;80;25803;-56
2022/06/22 11:04:28;;;;;;;;;;;;;;;23.22;31.92;100210.39;1722287;81;25842;-56
2022/06/22 11:07:17;;;;;;;;;;;;;;;22.98;32.32;100213.03;1738142;80;25794;-56
2022/06/22 11:10:11;;;;;;;;;;;;;;;22.83;32.78;100232.64;1745475;81;28419;-55
2022/06/22 11:13:19;;;;;;;;;;;;;;;22.76;33.00;100210.78;1654525;84;44000;-55
2022/06/22 11:16:00;;;;;;;;;;;;;;;22.61;33.30;100224.88;1741708;80;25784;-56
2022/06/22 11:19:02;;;;;;;;;;;;;;;22.56;33.51;100238.96;1745912;81;26004;-56
2022/06/22 11:21:44;;;;;;;;;;;;;;;22.59;33.90;100225.63;1737693;81;25858;-56
2022/06/22 11:24:23;;;;;;;;;;;;;;;22.60;34.12;100221.00;1743936;81;27415;-56
2022/06/22 11:33:03;;;;;;;;;;;;;;;22.85;34.13;100231.02;1729317;80;25922;-55
2022/06/22 11:35:33;;;;;;;;;;;;;;;22.87;34.35;100244.80;1744752;81;25474;-55
2022/06/22 11:38:18;;;;;;;;;;;;;;;22.88;34.48;100242.91;1740571;81;27492;-56
2022/06/22 11:40:55;;;;;;;;;;;;;;;22.84;34.36;100235.69;1636203;83;25897;-56
2022/06/22 11:43:43;;;;;;;;;;;;;;;22.79;34.71;100242.38;1723125;81;25812;-56
2022/06/22 11:46:25;;;;;;;;;;;;;;;22.88;34.73;100243.73;1725722;81;25909;-56
2022/06/22 11:49:18;;;;;;;;;;;;;;;23.03;34.37;100227.42;1745487;80;26430;-56
2022/06/22 11:52:24;;;;;;;;;;;;;;;23.01;34.25;100237.23;1734240;82;27493;-56
2022/06/22 11:54:54;;;;;;;;;;;;;;;22.85;34.37;100238.73;1744297;80;25813;-55
2022/06/22 11:57:27;;;;;;;;;;;;;;;22.82;34.90;100246.03;1739620;81;25769;-55
2022/06/22 12:00:18;;;;;;;;;;;;;;;22.68;34.65;100250.02;1739739;80;25810;-55
2022/06/22 12:03:01;;;;;;;;;;;;;;;22.39;34.82;100248.31;1742392;80;25812;-55
2022/06/22 12:05:46;;;;;;;;;;;;;;;22.35;35.21;100241.91;1740591;81;28472;-56
2022/06/22 12:08:28;;;;;;;;;;;;;;;22.43;35.07;100259.99;1743997;80;26220;-55
2022/06/22 12:11:17;;;;;;;;;;;;;;;22.49;34.62;100248.11;1722836;82;25829;-55
2022/06/22 12:17:11;;;;;;;;;;;;;;;22.59;34.95;100244.00;1690402;83;25837;-56
2022/06/22 12:19:50;;;;;;;;;;;;;;;22.56;34.73;100248.55;1640871;83;27578;-55
2022/06/22 12:22:35;;;;;;;;;;;;;;;22.64;34.94;100240.87;1701025;83;25796;-54
2022/06/22 12:25:18;;;;;;;;;;;;;;;22.62;34.70;100243.55;1744599;81;25772;-56
2022/06/22 12:27:51;;;;;;;;;;;;;;;22.81;34.74;100241.10;1740346;82;25945;-54
2022/06/22 12:30:44;;;;;;;;;;;;;;;23.22;33.97;100238.66;1724559;81;26020;-56
2022/06/22 12:33:23;;;;;;;;;;;;;;;23.36;33.79;100231.61;1741063;81;27483;-56
2022/06/22 12:36:05;;;;;;;;;;;;;;;23.55;33.56;100230.47;1743820;81;25703;-55
2022/06/22 12:38:44;;;;;;;;;;;;;;;23.64;33.71;100240.55;1742895;81;25724;-56
2022/06/22 12:41:34;;;;;;;;;;;;;;;23.78;33.64;100232.94;1715589;80;25693;-56
2022/06/22 12:44:31;;;;;;;;;;;;;;;23.99;33.30;100231.54;1720716;81;25767;-56
2022/06/22 12:47:14;;;;;;;;;;;;;;;23.97;33.65;100233.71;1739048;81;27667;-56
2022/06/22 12:50:02;;;;;;;;;;;;;;;23.79;33.77;100231.86;1746428;80;26254;-55
2022/06/22 12:52:37;;;;;;;;;;;;;;;23.72;34.26;100229.77;1745648;80;26350;-56
2022/06/22 12:55:10;;;;;;;;;;;;;;;23.65;33.83;100228.50;1742401;81;25852;-55
2022/06/22 12:57:50;;;;;;;;;;;;;;;23.66;33.69;100223.31;1746895;81;25841;-55
2022/06/22 13:00:19;;;;;;;;;;;;;;;23.59;33.79;100222.59;1743244;81;27532;-56
2022/06/22 13:02:48;;;;;;;;;;;;;;;23.41;33.08;100221.61;1743346;80;25699;-56
2022/06/22 13:05:18;;;;;;;;;;;;;;;23.32;33.32;100228.50;1686489;84;25784;-55
2022/06/22 13:07:50;;;;;;;;;;;;;;;23.41;33.85;100224.35;1680644;84;25950;-56
2022/06/22 13:10:23;;;;;;;;;;;;;;;23.53;33.91;100231.23;1691418;82;25688;-55
2022/06/22 13:13:09;;;;;;;;;;;;;;;23.76;33.23;100230.95;1674980;83;28328;-55
2022/06/22 13:15:57;;;;;;;;;;;;;;;24.03;32.56;100238.24;1688868;83;26071;-56
2022/06/22 13:18:30;;;;;;;;;;;;;;;24.95;31.33;100217.95;1686603;83;25781;-55
2022/06/22 13:21:04;;;;;;;;;;;;;;;25.81;30.12;100232.68;1689526;82;25895;-56
2022/06/22 13:23:34;;;;;;;;;;;;;;;25.87;28.61;100222.02;1704059;83;25767;-56
2022/06/22 13:26:21;;;;;;;;;;;;;;;25.85;29.17;100222.84;1745093;81;27550;-56
2022/06/22 13:28:57;;;;;;;;;;;;;;;25.99;28.31;100216.97;1745545;80;25832;-56
2022/06/22 13:31:27;;;;;;;;;;;;;;;25.76;28.41;100223.79;1741453;80;25730;-56
2022/06/22 13:34:00;;;;;;;;;;;;;;;25.68;28.75;100216.50;1741879;80;26721;-56
2022/06/22 13:36:33;;;;;;;;;;;;;;;26.02;28.34;100210.95;1723655;82;27338;-56
2022/06/22 13:39:12;;;;;;;;;;;;;;;26.74;27.20;100213.31;1724180;81;27556;-55
2022/06/22 13:42:06;;;;;;;;;;;;;;;27.74;25.53;100210.75;1710998;83;25835;-56
2022/06/22 13:45:02;;;;;;;;;;;;;;;28.69;25.83;100210.99;1665751;82;25831;-57
2022/06/22 13:47:49;;;;;;;;;;;;;;;28.95;25.81;100211.13;1716655;81;25806;-56
2022/06/22 13:50:25;;;;;;;;;;;;;;;28.94;24.06;100206.69;1714114;82;26475;-58
2022/06/22 13:52:53;;;;;;;;;;;;;;;29.29;24.25;100214.78;1712741;82;27676;-56
2022/06/22 13:55:47;;;;;;;;;;;;;;;29.47;23.33;100215.66;1713509;81;25775;-57
2022/06/22 13:58:19;;;;;;;;;;;;;;;28.72;23.42;100229.87;1709998;82;26211;-56